createdAt,value
2023-06-08T00:00:09.819Z,96685.72
2023-06-08T00:01:12.726Z,96684.56
2023-06-08T00:02:14.596Z,96686.47
2023-06-08T00:03:18.494Z,96686.09
2023-06-08T00:04:20.254Z,96683.75
2023-06-08T00:05:22.564Z,96690.72
2023-06-08T00:06:24.625Z,96687.22
2023-06-08T00:07:26.222Z,96684.16
2023-06-08T00:08:30.712Z,96692.28
2023-06-08T00:09:32.368Z,96684.94
2023-06-08T00:10:34.363Z,96691.53
2023-06-08T00:11:36.477Z,96690.41
2023-06-08T00:12:38.725Z,96694.69
2023-06-08T00:13:40.363Z,96693.53
2023-06-08T00:14:41.957Z,96690.06
2023-06-08T00:15:43.638Z,96681.94
2023-06-08T00:16:45.500Z,96691.25
2023-06-08T00:17:47.276Z,96688.91
2023-06-08T00:18:50.596Z,96687.38
2023-06-08T00:19:53.892Z,96691.63
2023-06-08T00:20:55.517Z,96695.13
2023-06-08T00:21:57.853Z,96699.03
2023-06-08T00:23:00.497Z,96695.91
2023-06-08T00:24:02.941Z,96688.91
2023-06-08T00:25:05.267Z,96699.03
2023-06-08T00:26:07.328Z,96691.22
2023-06-08T00:27:09.569Z,96698.25
2023-06-08T00:28:11.301Z,96694.34
2023-06-08T00:29:13.060Z,96694.72
2023-06-08T00:30:15.215Z,96691.63
2023-06-08T00:31:17.754Z,96696.66
2023-06-08T00:32:19.345Z,96695.13
2023-06-08T00:33:21.145Z,96693.19
2023-06-08T00:34:22.855Z,96689.28
2023-06-08T00:35:24.487Z,96688.13
2023-06-08T00:36:26.059Z,96694.38
2023-06-08T00:37:27.709Z,96692.75
2023-06-08T00:38:29.662Z,96694.66
2023-06-08T00:39:31.671Z,96691.16
2023-06-08T00:40:33.238Z,96693.44
2023-06-08T00:41:34.790Z,96697.75
2023-06-08T00:42:36.336Z,96697.38
2023-06-08T00:43:37.962Z,96694.28
2023-06-08T00:44:39.510Z,96698.94
2023-06-08T00:45:41.237Z,96687.69
2023-06-08T00:46:43.123Z,96692.72
2023-06-08T00:47:45.250Z,96690.34
2023-06-08T00:48:47.436Z,96700.44
2023-06-08T00:49:50.805Z,96692.69
2023-06-08T00:50:53.599Z,96695.03
2023-06-08T00:51:55.220Z,96693.47
2023-06-08T00:52:56.832Z,96694.63
2023-06-08T00:53:59.125Z,96692.66
2023-06-08T00:55:02.114Z,96688.00
2023-06-08T00:56:04.459Z,96681.81
2023-06-08T00:57:07.693Z,96687.97
2023-06-08T00:58:14.368Z,96686.06
2023-06-08T00:59:16.265Z,96688.38
2023-06-08T01:00:18.714Z,96691.88
2023-06-08T01:01:20.353Z,96691.50
2023-06-08T01:02:24.502Z,96693.47
2023-06-08T01:03:34.411Z,96698.16
2023-06-08T01:04:37.401Z,96693.13
2023-06-08T01:05:39.604Z,96689.66
2023-06-08T01:06:46.365Z,96688.09
2023-06-08T01:07:56.069Z,96690.03
2023-06-08T01:09:30.215Z,96691.22
2023-06-08T01:10:38.379Z,96696.66
2023-06-08T01:12:11.501Z,96698.97
2023-06-08T01:13:38.202Z,96698.97
2023-06-08T01:15:04.032Z,96698.19
2023-06-08T01:16:09.546Z,96695.91
2023-06-08T01:17:15.572Z,96692.00
2023-06-08T01:18:23.861Z,96691.25
2023-06-08T01:19:55.594Z,96695.13
2023-06-08T01:21:12.849Z,96691.22
2023-06-08T01:22:24.224Z,96690.84
2023-06-08T01:23:46.154Z,96700.19
2023-06-08T01:24:51.062Z,96693.97
2023-06-08T01:25:57.305Z,96695.91
2023-06-08T01:27:00.373Z,96692.00
2023-06-08T01:28:16.830Z,96693.56
2023-06-08T01:29:26.563Z,96697.44
2023-06-08T01:30:28.539Z,96686.19
2023-06-08T01:31:30.256Z,96692.78
2023-06-08T01:32:32.034Z,96695.13
2023-06-08T01:33:34.067Z,96698.22
2023-06-08T01:34:35.811Z,96695.88
2023-06-08T01:35:37.706Z,96701.31
2023-06-08T01:37:10.904Z,96694.72
2023-06-08T01:38:44.507Z,96692.00
2023-06-08T01:40:04.779Z,96689.28
2023-06-08T01:41:12.370Z,96697.81
2023-06-08T01:42:18.161Z,96685.81
2023-06-08T01:43:21.781Z,96689.28
2023-06-08T01:44:24.604Z,96693.16
2023-06-08T01:45:29.421Z,96692.38
2023-06-08T01:46:33.004Z,96690.84
2023-06-08T01:47:52.519Z,96692.78
2023-06-08T01:48:57.154Z,96696.28
2023-06-08T01:49:59.577Z,96697.44
2023-06-08T01:51:01.347Z,96696.66
2023-06-08T01:52:03.885Z,96691.63
2023-06-08T01:53:06.840Z,96688.50
2023-06-08T01:54:08.423Z,96695.88
2023-06-08T01:55:17.194Z,96695.50
2023-06-08T01:56:18.808Z,96695.91
2023-06-08T01:57:20.426Z,96695.53
2023-06-08T01:58:21.985Z,96695.13
2023-06-08T01:59:23.556Z,96698.22
2023-06-08T02:00:26.833Z,96703.59
2023-06-08T02:01:28.610Z,96702.03
2023-06-08T02:02:30.429Z,96699.69
2023-06-08T02:03:32.268Z,96696.59
2023-06-08T02:04:33.822Z,96695.38
2023-06-08T02:05:35.417Z,96693.03
2023-06-08T02:06:37.185Z,96695.75
2023-06-08T02:07:39.498Z,96701.94
2023-06-08T02:08:41.110Z,96699.22
2023-06-08T02:09:42.680Z,96700.38
2023-06-08T02:10:44.269Z,96701.50
2023-06-08T02:11:46.098Z,96703.44
2023-06-08T02:12:47.659Z,96700.22
2023-06-08T02:13:49.906Z,96698.63
2023-06-08T02:14:52.015Z,96699.31
2023-06-08T02:15:54.575Z,96694.25
2023-06-08T02:16:56.647Z,96689.22
2023-06-08T02:18:00.534Z,96700.03
2023-06-08T02:19:02.591Z,96689.19
2023-06-08T02:20:10.410Z,96694.63
2023-06-08T02:21:16.227Z,96693.47
2023-06-08T02:22:17.875Z,96689.22
2023-06-08T02:23:19.646Z,96699.25
2023-06-08T02:24:21.356Z,96692.19
2023-06-08T02:25:22.951Z,96695.31
2023-06-08T02:26:24.552Z,96693.47
2023-06-08T02:27:26.188Z,96696.59
2023-06-08T02:28:27.994Z,96693.91
2023-06-08T02:29:29.609Z,96693.19
2023-06-08T02:30:31.511Z,96695.53
2023-06-08T02:31:33.861Z,96700.63
2023-06-08T02:32:35.633Z,96704.16
2023-06-08T02:33:38.684Z,96696.84
2023-06-08T02:34:40.301Z,96701.13
2023-06-08T02:35:41.949Z,96701.94
2023-06-08T02:36:43.612Z,96696.53
2023-06-08T02:37:45.508Z,96698.91
2023-06-08T02:38:47.054Z,96700.44
2023-06-08T02:39:48.647Z,96697.34
2023-06-08T02:40:50.237Z,96692.28
2023-06-08T02:41:51.810Z,96696.97
2023-06-08T02:42:53.474Z,96696.19
2023-06-08T02:43:55.028Z,96696.59
2023-06-08T02:44:56.707Z,96698.13
2023-06-08T02:45:58.283Z,96695.81
2023-06-08T02:46:59.902Z,96696.59
2023-06-08T02:48:02.127Z,96700.84
2023-06-08T02:49:03.726Z,96691.16
2023-06-08T02:50:05.840Z,96704.31
2023-06-08T02:51:07.944Z,96700.84
2023-06-08T02:52:09.706Z,96701.22
2023-06-08T02:53:12.386Z,96708.97
2023-06-08T02:54:14.019Z,96707.41
2023-06-08T02:55:15.680Z,96705.84
2023-06-08T02:56:17.411Z,96700.44
2023-06-08T02:57:19.003Z,96700.06
2023-06-08T02:58:21.691Z,96700.44
2023-06-08T02:59:23.565Z,96701.59
2023-06-08T03:00:25.850Z,96705.84
2023-06-08T03:01:31.918Z,96701.16
2023-06-08T03:02:33.604Z,96708.94
2023-06-08T03:03:35.186Z,96705.03
2023-06-08T03:04:36.722Z,96706.59
2023-06-08T03:05:40.493Z,96708.56
2023-06-08T03:06:43.632Z,96707.38
2023-06-08T03:07:45.288Z,96705.84
2023-06-08T03:08:49.110Z,96701.94
2023-06-08T03:09:50.761Z,96705.06
2023-06-08T03:10:52.357Z,96704.28
2023-06-08T03:11:53.972Z,96708.94
2023-06-08T03:12:55.762Z,96702.72
2023-06-08T03:13:57.343Z,96704.66
2023-06-08T03:14:59.410Z,96705.00
2023-06-08T03:16:01.082Z,96710.75
2023-06-08T03:17:04.446Z,96713.84
2023-06-08T03:18:06.370Z,96715.78
2023-06-08T03:19:08.163Z,96718.44
2023-06-08T03:20:11.133Z,96718.03
2023-06-08T03:21:15.833Z,96711.06
2023-06-08T03:22:21.102Z,96722.28
2023-06-08T03:23:22.753Z,96721.22
2023-06-08T03:24:24.302Z,96720.41
2023-06-08T03:25:25.904Z,96714.63
2023-06-08T03:26:27.559Z,96714.28
2023-06-08T03:27:29.225Z,96712.34
2023-06-08T03:28:30.878Z,96717.41
2023-06-08T03:29:32.827Z,96719.34
2023-06-08T03:30:34.460Z,96718.56
2023-06-08T03:31:38.301Z,96715.09
2023-06-08T03:32:40.127Z,96723.66
2023-06-08T03:33:44.273Z,96711.66
2023-06-08T03:34:46.034Z,96712.06
2023-06-08T03:35:48.954Z,96713.63
2023-06-08T03:36:50.526Z,96717.16
2023-06-08T03:37:52.080Z,96719.88
2023-06-08T03:38:53.677Z,96716.00
2023-06-08T03:39:55.257Z,96714.09
2023-06-08T03:40:56.871Z,96723.06
2023-06-08T03:41:58.541Z,96727.72
2023-06-08T03:43:00.154Z,96722.28
2023-06-08T03:44:02.295Z,96722.69
2023-06-08T03:45:04.339Z,96714.53
2023-06-08T03:46:06.531Z,96727.34
2023-06-08T03:47:10.291Z,96724.63
2023-06-08T03:48:11.981Z,96728.50
2023-06-08T03:49:14.239Z,96730.06
2023-06-08T03:50:15.920Z,96731.97
2023-06-08T03:51:21.485Z,96723.06
2023-06-08T03:52:23.053Z,96726.16
2023-06-08T03:53:24.886Z,96728.09
2023-06-08T03:54:26.427Z,96728.50
2023-06-08T03:55:28.041Z,96729.25
2023-06-08T03:56:29.651Z,96732.38
2023-06-08T03:57:31.497Z,96729.25
2023-06-08T03:58:34.093Z,96725.41
2023-06-08T03:59:35.690Z,96728.09
2023-06-08T04:00:37.281Z,96734.31
2023-06-08T04:01:42.608Z,96733.53
2023-06-08T04:02:44.487Z,96740.13
2023-06-08T04:03:46.357Z,96735.06
2023-06-08T04:04:48.814Z,96736.22
2023-06-08T04:05:50.395Z,96737.78
2023-06-08T04:06:52.413Z,96733.50
2023-06-08T04:07:54.080Z,96735.41
2023-06-08T04:08:55.843Z,96741.63
2023-06-08T04:09:57.419Z,96741.19
2023-06-08T04:10:59.947Z,96748.56
2023-06-08T04:12:01.563Z,96739.66
2023-06-08T04:13:03.430Z,96741.63
2023-06-08T04:14:05.040Z,96747.88
2023-06-08T04:15:07.613Z,96745.94
2023-06-08T04:16:11.223Z,96749.47
2023-06-08T04:17:13.804Z,96745.56
2023-06-08T04:18:15.416Z,96749.47
2023-06-08T04:19:17.041Z,96754.91
2023-06-08T04:20:18.840Z,96747.91
2023-06-08T04:21:22.446Z,96740.91
2023-06-08T04:22:24.222Z,96742.47
2023-06-08T04:23:28.539Z,96747.09
2023-06-08T04:24:30.398Z,96738.53
2023-06-08T04:25:32.170Z,96747.06
2023-06-08T04:26:33.859Z,96738.50
2023-06-08T04:27:36.031Z,96746.25
2023-06-08T04:28:37.679Z,96735.34
2023-06-08T04:29:39.318Z,96738.88
2023-06-08T04:30:41.198Z,96743.16
2023-06-08T04:31:42.905Z,96745.88
2023-06-08T04:32:44.527Z,96746.25
2023-06-08T04:33:46.705Z,96747.06
2023-06-08T04:34:48.320Z,96755.19
2023-06-08T04:35:49.937Z,96753.19
2023-06-08T04:36:51.813Z,96750.94
2023-06-08T04:37:53.447Z,96744.34
2023-06-08T04:38:55.035Z,96745.53
2023-06-08T04:39:57.897Z,96749.41
2023-06-08T04:41:02.663Z,96739.72
2023-06-08T04:42:06.742Z,96749.41
2023-06-08T04:43:09.881Z,96740.06
2023-06-08T04:44:14.363Z,96740.78
2023-06-08T04:45:20.163Z,96742.63
2023-06-08T04:46:26.144Z,96742.53
2023-06-08T04:47:30.868Z,96747.19
2023-06-08T04:48:35.160Z,96738.09
2023-06-08T04:49:36.804Z,96739.94
2023-06-08T04:50:39.326Z,96736.34
2023-06-08T04:51:41.496Z,96742.47
2023-06-08T04:52:46.394Z,96740.88
2023-06-08T04:53:47.972Z,96732.97
2023-06-08T04:54:53.955Z,96734.44
2023-06-08T04:56:04.957Z,96733.16
2023-06-08T04:57:11.922Z,96735.78
2023-06-08T04:58:13.862Z,96738.06
2023-06-08T04:59:15.898Z,96737.97
2023-06-08T05:00:19.781Z,96739.13
2023-06-08T05:01:21.579Z,96730.38
2023-06-08T05:02:23.237Z,96740.00
2023-06-08T05:03:26.752Z,96735.16
2023-06-08T05:04:28.462Z,96734.25
2023-06-08T05:05:30.028Z,96735.28
2023-06-08T05:06:31.902Z,96737.97
2023-06-08T05:07:33.538Z,96736.72
2023-06-08T05:08:35.174Z,96740.47
2023-06-08T05:09:38.698Z,96736.38
2023-06-08T05:10:42.696Z,96731.94
2023-06-08T05:11:44.503Z,96738.72
2023-06-08T05:12:46.389Z,96733.09
2023-06-08T05:13:48.123Z,96739.19
2023-06-08T05:14:49.781Z,96741.47
2023-06-08T05:15:51.443Z,96748.47
2023-06-08T05:16:53.129Z,96735.88
2023-06-08T05:17:56.181Z,96735.78
2023-06-08T05:18:57.846Z,96737.19
2023-06-08T05:19:59.470Z,96735.50
2023-06-08T05:21:01.259Z,96734.81
2023-06-08T05:22:02.916Z,96737.72
2023-06-08T05:23:04.617Z,96743.72
2023-06-08T05:24:06.786Z,96737.38
2023-06-08T05:25:08.537Z,96745.84
2023-06-08T05:26:10.136Z,96732.66
2023-06-08T05:27:11.997Z,96735.00
2023-06-08T05:28:13.619Z,96741.69
2023-06-08T05:29:15.355Z,96734.25
2023-06-08T05:30:16.947Z,96737.25
2023-06-08T05:31:18.597Z,96739.38
2023-06-08T05:32:22.651Z,96741.00
2023-06-08T05:33:24.299Z,96745.41
2023-06-08T05:34:25.835Z,96740.16
2023-06-08T05:35:27.838Z,96742.00
2023-06-08T05:36:29.863Z,96751.50
2023-06-08T05:37:31.612Z,96747.69
2023-06-08T05:38:33.398Z,96745.84
2023-06-08T05:39:35.023Z,96742.53
2023-06-08T05:40:36.695Z,96747.41
2023-06-08T05:41:38.327Z,96753.19
2023-06-08T05:42:39.923Z,96741.72
2023-06-08T05:43:41.508Z,96745.88
2023-06-08T05:44:43.117Z,96743.44
2023-06-08T05:45:46.775Z,96743.97
2023-06-08T05:46:48.342Z,96744.06
2023-06-08T05:47:49.989Z,96736.13
2023-06-08T05:48:51.789Z,96735.75
2023-06-08T05:49:53.415Z,96735.16
2023-06-08T05:50:55.013Z,96737.69
2023-06-08T05:51:56.544Z,96734.94
2023-06-08T05:52:58.135Z,96732.75
2023-06-08T05:53:59.701Z,96726.78
2023-06-08T05:55:01.811Z,96724.91
2023-06-08T05:56:03.961Z,96728.94
2023-06-08T05:57:06.593Z,96729.84
2023-06-08T05:58:11.325Z,96725.66
2023-06-08T05:59:12.942Z,96733.56
2023-06-08T06:00:15.169Z,96732.47
2023-06-08T06:01:17.008Z,96732.38
2023-06-08T06:02:18.636Z,96725.56
2023-06-08T06:03:21.185Z,96728.78
2023-06-08T06:04:35.952Z,96733.44
2023-06-08T06:05:38.789Z,96728.50
2023-06-08T06:06:40.498Z,96738.59
2023-06-08T06:07:42.263Z,96732.44
2023-06-08T06:08:44.918Z,96730.81
2023-06-08T06:09:46.703Z,96730.59
2023-06-08T06:10:48.334Z,96726.06
2023-06-08T06:11:49.921Z,96729.22
2023-06-08T06:12:51.576Z,96722.59
2023-06-08T06:13:53.528Z,96728.97
2023-06-08T06:14:56.558Z,96725.22
2023-06-08T06:15:58.182Z,96726.56
2023-06-08T06:18:07.722Z,96720.97
2023-06-08T06:19:09.376Z,96724.22
2023-06-08T06:20:11.340Z,96726.53
2023-06-08T06:21:12.982Z,96722.03
2023-06-08T06:22:14.694Z,96721.94
2023-06-08T06:23:16.340Z,96726.22
2023-06-08T06:24:20.001Z,96720.41
2023-06-08T06:25:23.177Z,96722.38
2023-06-08T06:26:27.901Z,96721.78
2023-06-08T06:27:29.499Z,96717.84
2023-06-08T06:28:31.700Z,96715.81
2023-06-08T06:29:36.337Z,96720.75
2023-06-08T06:30:38.048Z,96718.50
2023-06-08T06:31:39.774Z,96713.41
2023-06-08T06:32:41.402Z,96714.25
2023-06-08T06:33:43.050Z,96716.97
2023-06-08T06:34:47.397Z,96709.47
2023-06-08T06:35:48.958Z,96710.66
2023-06-08T06:36:50.786Z,96712.06
2023-06-08T06:37:54.589Z,96705.53
2023-06-08T06:38:56.304Z,96708.56
2023-06-08T06:39:57.921Z,96700.59
2023-06-08T06:40:59.482Z,96698.03
2023-06-08T06:42:01.944Z,96698.63
2023-06-08T06:43:03.573Z,96703.78
2023-06-08T06:44:05.328Z,96707.72
2023-06-08T06:45:07.846Z,96701.69
2023-06-08T06:46:09.596Z,96701.19
2023-06-08T06:47:11.195Z,96698.84
2023-06-08T06:48:12.872Z,96698.16
2023-06-08T06:49:14.629Z,96698.13
2023-06-08T06:50:16.270Z,96696.03
2023-06-08T06:51:17.940Z,96691.44
2023-06-08T06:52:19.543Z,96694.28
2023-06-08T06:53:21.374Z,96692.16
2023-06-08T06:54:23.007Z,96693.50
2023-06-08T06:55:24.817Z,96688.00
2023-06-08T06:56:26.549Z,96696.34
2023-06-08T06:57:29.736Z,96694.75
2023-06-08T06:58:32.202Z,96687.34
2023-06-08T06:59:34.957Z,96686.69
2023-06-08T07:00:40.624Z,96689.94
2023-06-08T07:01:43.094Z,96681.69
2023-06-08T07:02:44.843Z,96684.66
2023-06-08T07:03:47.535Z,96681.81
2023-06-08T07:04:49.976Z,96687.31
2023-06-08T07:05:51.527Z,96683.19
2023-06-08T07:06:53.984Z,96682.97
2023-06-08T07:07:55.657Z,96680.22
2023-06-08T07:08:57.323Z,96684.25
2023-06-08T07:09:58.875Z,96687.03
2023-06-08T07:11:02.268Z,96680.34
2023-06-08T07:12:15.190Z,96678.69
2023-06-08T07:13:18.405Z,96677.66
2023-06-08T07:14:20.099Z,96670.63
2023-06-08T07:15:21.677Z,96682.81
2023-06-08T07:16:27.052Z,96677.09
2023-06-08T07:17:29.182Z,96675.19
2023-06-08T07:18:31.091Z,96671.06
2023-06-08T07:19:34.637Z,96679.66
2023-06-08T07:20:36.926Z,96680.47
2023-06-08T07:21:46.397Z,96673.06
2023-06-08T07:23:07.494Z,96670.63
2023-06-08T07:24:41.000Z,96674.00
2023-06-08T07:26:25.343Z,96675.44
2023-06-08T07:27:00.524Z,96676.78
2023-06-08T07:28:04.926Z,96669.75
2023-06-08T07:29:08.330Z,96667.09
2023-06-08T07:30:10.417Z,96675.03
2023-06-08T07:31:12.095Z,96672.41
2023-06-08T07:32:13.725Z,96681.78
2023-06-08T07:33:15.470Z,96678.25
2023-06-08T07:34:17.142Z,96680.25
2023-06-08T07:35:19.035Z,96675.91
2023-06-08T07:36:21.781Z,96670.19
2023-06-08T07:37:23.511Z,96671.22
2023-06-08T07:38:25.220Z,96665.19
2023-06-08T07:39:27.008Z,96671.41
2023-06-08T07:40:28.681Z,96666.06
2023-06-08T07:41:32.342Z,96660.41
2023-06-08T07:42:35.959Z,96665.72
2023-06-08T07:43:37.528Z,96651.34
2023-06-08T07:44:40.246Z,96655.84
2023-06-08T07:45:41.925Z,96654.81
2023-06-08T07:46:43.592Z,96654.03
2023-06-08T07:47:45.876Z,96649.41
2023-06-08T07:48:47.516Z,96652.22
2023-06-08T07:49:49.264Z,96653.69
2023-06-08T07:50:50.993Z,96654.25
2023-06-08T07:51:52.619Z,96650.00
2023-06-08T07:52:54.408Z,96647.09
2023-06-08T07:53:56.511Z,96646.97
2023-06-08T07:54:58.099Z,96650.41
2023-06-08T07:55:59.650Z,96654.53
2023-06-08T07:57:01.540Z,96655.00
2023-06-08T07:58:03.195Z,96646.56
2023-06-08T07:59:04.833Z,96647.31
2023-06-08T08:00:07.434Z,96658.44
2023-06-08T08:01:09.880Z,96641.63
2023-06-08T08:02:12.120Z,96642.28
2023-06-08T08:03:13.914Z,96641.41
2023-06-08T08:04:15.767Z,96650.88
2023-06-08T08:05:17.762Z,96647.66
2023-06-08T08:06:19.867Z,96639.13
2023-06-08T08:07:21.478Z,96635.38
2023-06-08T08:08:23.087Z,96635.06
2023-06-08T08:09:24.655Z,96636.06
2023-06-08T08:10:26.849Z,96637.50
2023-06-08T08:11:29.107Z,96637.41
2023-06-08T08:12:30.738Z,96639.84
2023-06-08T08:13:32.447Z,96631.78
2023-06-08T08:14:34.061Z,96631.69
2023-06-08T08:15:36.286Z,96632.34
2023-06-08T08:16:38.628Z,96623.91
2023-06-08T08:17:41.914Z,96633.06
2023-06-08T08:18:43.590Z,96634.38
2023-06-08T08:19:45.455Z,96630.59
2023-06-08T08:20:47.922Z,96625.84
2023-06-08T08:21:49.949Z,96624.53
2023-06-08T08:22:51.781Z,96619.63
2023-06-08T08:23:53.586Z,96624.88
2023-06-08T08:24:55.456Z,96618.72
2023-06-08T08:25:57.148Z,96616.19
2023-06-08T08:26:58.759Z,96614.44
2023-06-08T08:28:00.521Z,96610.81
2023-06-08T08:29:02.122Z,96608.13
2023-06-08T08:30:04.081Z,96613.81
2023-06-08T08:31:05.944Z,96610.16
2023-06-08T08:32:07.960Z,96602.94
2023-06-08T08:33:09.624Z,96605.06
2023-06-08T08:34:14.093Z,96602.50
2023-06-08T08:35:16.042Z,96608.59
2023-06-08T08:36:18.144Z,96606.72
2023-06-08T08:37:19.803Z,96595.38
2023-06-08T08:38:21.406Z,96601.88
2023-06-08T08:39:22.979Z,96604.63
2023-06-08T08:40:24.802Z,96596.84
2023-06-08T08:41:29.975Z,96596.41
2023-06-08T08:42:33.391Z,96602.56
2023-06-08T08:44:01.476Z,96596.75
2023-06-08T08:45:07.004Z,96600.94
2023-06-08T08:46:08.843Z,96597.41
2023-06-08T08:47:14.311Z,96595.34
2023-06-08T08:48:18.288Z,96589.38
2023-06-08T08:49:22.740Z,96593.84
2023-06-08T08:50:26.370Z,96590.94
2023-06-08T08:51:29.684Z,96596.59
2023-06-08T08:52:34.600Z,96582.28
2023-06-08T08:53:36.684Z,96587.47
2023-06-08T08:54:39.711Z,96585.50
2023-06-08T08:55:42.460Z,96580.75
2023-06-08T08:56:44.710Z,96580.50
2023-06-08T08:57:46.373Z,96576.59
2023-06-08T08:58:52.202Z,96575.91
2023-06-08T08:59:54.042Z,96574.56
2023-06-08T09:00:55.720Z,96580.06
2023-06-08T09:01:57.828Z,96583.44
2023-06-08T09:03:00.272Z,96580.56
2023-06-08T09:04:02.816Z,96579.22
2023-06-08T09:05:06.575Z,96578.34
2023-06-08T09:06:08.438Z,96578.06
2023-06-08T09:07:10.022Z,96575.19
2023-06-08T09:08:12.436Z,96571.78
2023-06-08T09:09:14.129Z,96572.94
2023-06-08T09:10:24.068Z,96569.09
2023-06-08T09:11:26.882Z,96573.19
2023-06-08T09:12:39.443Z,96570.97
2023-06-08T09:13:41.498Z,96570.13
2023-06-08T09:14:58.706Z,96570.44
2023-06-08T09:16:18.403Z,96570.06
2023-06-08T09:17:39.183Z,96564.31
2023-06-08T09:18:42.413Z,96565.72
2023-06-08T09:19:53.857Z,96565.13
2023-06-08T09:20:56.410Z,96562.59
2023-06-08T09:21:57.969Z,96564.88
2023-06-08T09:23:17.134Z,96560.94
2023-06-08T09:24:21.641Z,96555.81
2023-06-08T09:25:39.572Z,96557.38
2023-06-08T09:26:49.499Z,96555.50
2023-06-08T09:27:51.074Z,96553.25
2023-06-08T09:28:52.722Z,96554.53
2023-06-08T09:29:56.131Z,96552.56
2023-06-08T09:30:58.992Z,96556.53
2023-06-08T09:32:03.603Z,96550.09
2023-06-08T09:33:21.847Z,96548.88
2023-06-08T09:34:23.544Z,96547.97
2023-06-08T09:35:25.537Z,96543.88
2023-06-08T09:36:28.179Z,96545.66
2023-06-08T09:37:34.647Z,96544.75
2023-06-08T09:38:36.792Z,96545.84
2023-06-08T09:39:42.901Z,96536.31
2023-06-08T09:40:44.539Z,96539.47
2023-06-08T09:41:58.086Z,96537.97
2023-06-08T09:43:00.990Z,96535.75
2023-06-08T09:44:02.849Z,96532.66
2023-06-08T09:45:10.003Z,96536.56
2023-06-08T09:46:32.260Z,96534.44
2023-06-08T09:47:33.898Z,96528.75
2023-06-08T09:48:35.873Z,96529.53
2023-06-08T09:49:37.449Z,96522.63
2023-06-08T09:50:39.053Z,96525.03
2023-06-08T09:51:49.843Z,96527.44
2023-06-08T09:52:52.632Z,96517.13
2023-06-08T09:53:59.201Z,96522.97
2023-06-08T09:55:01.305Z,96512.63
2023-06-08T09:56:06.453Z,96526.41
2023-06-08T09:57:10.273Z,96525.38
2023-06-08T09:58:12.681Z,96513.28
2023-06-08T09:59:18.575Z,96511.16
2023-06-08T10:00:24.328Z,96511.13
2023-06-08T10:01:37.043Z,96513.28
2023-06-08T10:02:45.478Z,96513.00
2023-06-08T10:03:52.406Z,96504.25
2023-06-08T10:04:57.141Z,96509.03
2023-06-08T10:06:00.338Z,96507.34
2023-06-08T10:07:09.044Z,96504.75
2023-06-08T10:08:13.608Z,96507.50
2023-06-08T10:09:19.194Z,96501.97
2023-06-08T10:10:29.961Z,96503.22
2023-06-08T10:11:32.898Z,96505.03
2023-06-08T10:12:34.742Z,96508.38
2023-06-08T10:13:37.221Z,96505.34
2023-06-08T10:14:40.465Z,96499.25
2023-06-08T10:15:43.523Z,96495.28
2023-06-08T10:16:47.351Z,96493.13
2023-06-08T10:17:51.755Z,96496.16
2023-06-08T10:18:54.607Z,96488.38
2023-06-08T10:19:57.724Z,96488.66
2023-06-08T10:21:01.930Z,96490.22
2023-06-08T10:22:04.543Z,96481.09
2023-06-08T10:23:07.244Z,96479.69
2023-06-08T10:24:11.486Z,96477.00
2023-06-08T10:25:17.414Z,96475.88
2023-06-08T10:26:20.101Z,96478.19
2023-06-08T10:27:24.692Z,96471.81
2023-06-08T10:28:26.438Z,96469.63
2023-06-08T10:29:28.502Z,96471.03
2023-06-08T10:30:42.661Z,96470.19
2023-06-08T10:31:48.585Z,96469.66
2023-06-08T10:32:51.778Z,96467.84
2023-06-08T10:33:58.207Z,96461.25
2023-06-08T10:35:02.911Z,96457.81
2023-06-08T10:36:10.119Z,96457.28
2023-06-08T10:37:45.207Z,96461.63
2023-06-08T10:39:01.269Z,96454.94
2023-06-08T10:40:12.691Z,96458.69
2023-06-08T10:41:47.609Z,96452.09
2023-06-08T10:43:00.445Z,96445.38
2023-06-08T10:44:33.963Z,96443.13
2023-06-08T10:45:42.012Z,96443.56
2023-06-08T10:46:44.173Z,96442.34
2023-06-08T10:47:45.839Z,96439.19
2023-06-08T10:48:49.566Z,96433.13
2023-06-08T10:50:06.341Z,96432.09
2023-06-08T10:51:12.430Z,96428.44
2023-06-08T10:52:23.123Z,96428.00
2023-06-08T10:53:41.774Z,96417.59
2023-06-08T10:55:10.173Z,96419.47
2023-06-08T10:56:12.151Z,96416.56
2023-06-08T10:57:38.166Z,96415.34
2023-06-08T10:58:52.692Z,96412.91
2023-06-08T10:59:55.472Z,96403.19
2023-06-08T11:01:08.245Z,96408.25
2023-06-08T11:02:10.523Z,96400.88
2023-06-08T11:03:13.999Z,96403.63
2023-06-08T11:04:19.252Z,96408.25
2023-06-08T11:05:24.565Z,96408.25
2023-06-08T11:06:30.452Z,96399.03
2023-06-08T11:07:32.858Z,96393.78
2023-06-08T11:08:34.784Z,96391.06
2023-06-08T11:09:37.851Z,96391.38
2023-06-08T11:10:41.099Z,96386.97
2023-06-08T11:11:52.242Z,96395.69
2023-06-08T11:13:03.763Z,96383.41
2023-06-08T11:14:05.336Z,96389.16
2023-06-08T11:15:07.738Z,96391.84
2023-06-08T11:16:09.789Z,96391.78
2023-06-08T11:17:11.584Z,96379.56
2023-06-08T11:18:13.515Z,96376.06
2023-06-08T11:19:17.909Z,96383.72
2023-06-08T11:20:28.164Z,96376.13
2023-06-08T11:21:29.836Z,96381.03
2023-06-08T11:22:31.449Z,96365.09
2023-06-08T11:23:35.290Z,96369.56
2023-06-08T11:24:36.993Z,96368.19
2023-06-08T11:25:39.849Z,96363.88
2023-06-08T11:26:52.290Z,96369.56
2023-06-08T11:28:04.833Z,96368.94
2023-06-08T11:29:06.924Z,96360.22
2023-06-08T11:30:10.584Z,96357.59
2023-06-08T11:31:12.237Z,96352.69
2023-06-08T11:32:16.992Z,96353.59
2023-06-08T11:33:20.821Z,96348.56
2023-06-08T11:34:23.691Z,96352.50
2023-06-08T11:35:26.194Z,96359.88
2023-06-08T11:36:28.570Z,96352.66
2023-06-08T11:37:34.593Z,96353.41
2023-06-08T11:38:36.286Z,96349.13
2023-06-08T11:39:43.942Z,96348.19
2023-06-08T11:40:45.573Z,96351.13
2023-06-08T11:41:47.795Z,96345.13
2023-06-08T11:42:50.856Z,96350.63
2023-06-08T11:43:52.392Z,96348.81
2023-06-08T11:44:55.532Z,96344.50
2023-06-08T11:46:00.973Z,96347.44
2023-06-08T11:47:03.068Z,96339.91
2023-06-08T11:48:16.349Z,96339.13
2023-06-08T11:49:18.762Z,96336.97
2023-06-08T11:50:20.983Z,96327.75
2023-06-08T11:51:26.347Z,96327.13
2023-06-08T11:52:31.352Z,96324.84
2023-06-08T11:53:33.379Z,96335.31
2023-06-08T11:54:35.238Z,96332.72
2023-06-08T11:55:40.204Z,96336.25
2023-06-08T11:56:43.181Z,96328.72
2023-06-08T11:57:52.914Z,96331.94
2023-06-08T11:58:54.641Z,96321.22
2023-06-08T11:59:56.421Z,96331.00
2023-06-08T12:01:06.639Z,96327.03
2023-06-08T12:02:11.639Z,96323.94
2023-06-08T12:03:13.389Z,96321.69
2023-06-08T12:04:15.287Z,96319.66
2023-06-08T12:05:23.163Z,96322.56
2023-06-08T12:06:27.759Z,96317.78
2023-06-08T12:07:30.004Z,96312.84
2023-06-08T12:08:34.301Z,96307.75
2023-06-08T12:09:36.149Z,96308.94
2023-06-08T12:10:46.280Z,96305.69
2023-06-08T12:11:47.886Z,96311.34
2023-06-08T12:12:50.371Z,96308.09
2023-06-08T12:13:53.611Z,96308.69
2023-06-08T12:14:56.729Z,96307.78
2023-06-08T12:15:58.346Z,96307.41
2023-06-08T12:17:04.060Z,96302.19
2023-06-08T12:18:05.857Z,96304.19
2023-06-08T12:19:07.729Z,96304.00
2023-06-08T12:20:10.006Z,96301.53
2023-06-08T12:21:17.630Z,96303.06
2023-06-08T12:22:19.556Z,96297.34
2023-06-08T12:23:23.960Z,96302.81
2023-06-08T12:24:26.150Z,96303.06
2023-06-08T12:25:27.762Z,96296.00
2023-06-08T12:26:29.362Z,96292.00
2023-06-08T12:27:36.899Z,96298.66
2023-06-08T12:28:39.448Z,96294.66
2023-06-08T12:29:42.656Z,96296.00
2023-06-08T12:30:44.239Z,96295.66
2023-06-08T12:31:46.050Z,96296.88